createdAt,value
2018-03-23T22:13:17.635Z,64.20
2018-03-23T22:15:48.163Z,63.40
2018-03-23T22:18:17.558Z,64.00
2018-03-23T22:20:47.687Z,63.70
2018-03-23T22:23:16.915Z,63.60
2018-03-23T22:25:46.251Z,63.30
2018-03-23T22:28:15.708Z,63.10
2018-03-23T22:30:45.193Z,62.90
2018-03-23T22:33:14.441Z,62.90
2018-03-23T22:35:43.979Z,62.90
2018-03-23T22:38:14.302Z,63.40
2018-03-23T22:40:43.891Z,63.40
2018-03-23T22:43:13.400Z,63.60
2018-03-23T22:45:42.860Z,63.60
2018-03-23T22:48:12.363Z,63.50
2018-03-23T22:50:41.663Z,63.40
2018-03-23T22:53:11.216Z,63.10
2018-03-23T22:55:41.234Z,62.60
2018-03-23T22:58:10.483Z,62.60
2018-03-23T23:00:40.062Z,62.50
2018-03-23T23:03:09.699Z,62.60
2018-03-23T23:05:39.178Z,62.80
2018-03-23T23:08:08.303Z,62.80
2018-03-23T23:10:37.857Z,62.90
2018-03-23T23:13:07.171Z,63.20
2018-03-23T23:15:36.440Z,63.00
2018-03-23T23:18:06.160Z,62.80
2018-03-23T23:20:35.354Z,62.70
2018-03-23T23:23:04.858Z,62.70
2018-03-23T23:25:34.185Z,62.10
2018-03-23T23:28:03.497Z,62.00
2018-03-23T23:30:33.737Z,63.60
2018-03-23T23:33:03.359Z,63.00
2018-03-23T23:35:32.782Z,63.40
2018-03-23T23:38:01.996Z,63.60
2018-03-23T23:40:31.643Z,63.60
2018-03-23T23:43:02.185Z,63.60
2018-03-23T23:45:31.722Z,63.50
2018-03-23T23:48:01.066Z,63.50
2018-03-23T23:50:30.260Z,63.10
2018-03-23T23:53:00.530Z,63.20
2018-03-23T23:55:29.716Z,63.20
2018-03-23T23:57:59.104Z,63.20
